createdAt,value
2018-12-03T00:01:54.907Z,11.10
2018-12-03T00:06:59.826Z,11.00
2018-12-03T00:17:39.796Z,10.70
2018-12-03T00:22:44.647Z,10.60
2018-12-03T00:27:53.126Z,10.40
2018-12-03T00:32:58.022Z,10.30
2018-12-03T00:38:03.823Z,10.30
2018-12-03T00:43:08.868Z,10.40
2018-12-03T00:48:13.810Z,10.40
2018-12-03T00:53:18.836Z,10.20
2018-12-03T00:58:24.043Z,9.90
2018-12-03T01:03:29.079Z,9.90
2018-12-03T01:08:34.114Z,9.90
2018-12-03T01:13:39.112Z,9.80
2018-12-03T01:18:44.282Z,9.90
2018-12-03T01:23:49.330Z,10.00
2018-12-03T01:28:54.184Z,10.00
2018-12-03T01:33:59.187Z,10.00
2018-12-03T01:39:04.544Z,10.30
2018-12-03T01:44:09.605Z,11.50
2018-12-03T01:49:14.467Z,12.30
2018-12-03T01:54:19.751Z,12.50
2018-12-03T01:59:24.637Z,12.40
2018-12-03T02:04:29.646Z,12.40
2018-12-03T02:09:34.548Z,12.50
2018-12-03T02:14:40.319Z,12.50
2018-12-03T02:19:45.346Z,12.50
2018-12-03T02:24:50.631Z,12.80
2018-12-03T02:29:55.602Z,13.10
2018-12-03T02:35:00.702Z,13.20
2018-12-03T02:40:08.316Z,12.90
2018-12-03T02:45:13.983Z,12.50
2018-12-03T02:50:19.221Z,12.40
2018-12-03T02:55:24.231Z,12.40
2018-12-03T03:00:29.223Z,12.40
2018-12-03T03:05:34.204Z,12.40
2018-12-03T03:10:39.099Z,12.30
2018-12-03T03:15:43.976Z,12.20
2018-12-03T03:20:49.210Z,12.10
2018-12-03T03:25:54.212Z,12.10
2018-12-03T03:30:59.127Z,12.00
2018-12-03T03:36:04.156Z,12.20
2018-12-03T03:41:09.136Z,12.30
2018-12-03T03:46:14.072Z,12.30
2018-12-03T03:51:19.087Z,12.40
2018-12-03T03:56:24.395Z,12.40
2018-12-03T04:01:29.270Z,12.60
2018-12-03T04:06:34.138Z,12.60
2018-12-03T04:11:38.998Z,12.70
2018-12-03T04:16:43.882Z,12.60
2018-12-03T04:21:49.457Z,12.60
2018-12-03T04:26:54.464Z,12.60
2018-12-03T04:31:59.395Z,12.80
2018-12-03T04:37:05.399Z,12.80
2018-12-03T04:42:10.805Z,12.90
2018-12-03T04:47:15.760Z,12.90
2018-12-03T04:52:21.269Z,12.90
2018-12-03T04:57:26.206Z,12.90
2018-12-03T05:02:31.196Z,13.00
2018-12-03T05:07:36.274Z,13.00
2018-12-03T05:12:41.325Z,12.90
2018-12-03T05:17:48.245Z,12.90
2018-12-03T05:22:54.421Z,12.90
2018-12-03T05:27:59.528Z,12.70
2018-12-03T05:33:04.419Z,12.70
2018-12-03T05:38:09.310Z,12.70
2018-12-03T05:43:14.212Z,12.80
2018-12-03T05:48:19.932Z,12.80
2018-12-03T05:53:25.957Z,12.70
2018-12-03T05:58:32.816Z,12.90
2018-12-03T06:03:37.745Z,12.80
2018-12-03T06:08:42.622Z,12.90
2018-12-03T06:13:47.765Z,12.90
2018-12-03T06:18:52.698Z,13.00
2018-12-03T06:23:57.668Z,13.00
2018-12-03T06:29:02.620Z,12.90
2018-12-03T06:34:07.568Z,12.80
2018-12-03T06:39:12.494Z,12.60
2018-12-03T06:44:18.472Z,12.60
2018-12-03T06:49:23.448Z,12.40
2018-12-03T06:54:28.618Z,12.40
2018-12-03T06:59:33.562Z,12.40
2018-12-03T07:04:38.618Z,12.40
2018-12-03T07:09:43.771Z,12.60
2018-12-03T07:14:48.790Z,12.40
2018-12-03T07:19:53.678Z,12.50
2018-12-03T07:24:58.589Z,12.70
2018-12-03T07:30:03.776Z,12.60
2018-12-03T07:35:09.329Z,12.80
2018-12-03T07:40:14.568Z,12.80
2018-12-03T07:45:21.839Z,12.80
2018-12-03T07:50:26.781Z,12.80
2018-12-03T07:55:32.041Z,12.70
2018-12-03T08:00:40.343Z,12.70
2018-12-03T08:05:45.411Z,12.70
2018-12-03T08:10:52.881Z,13.00
2018-12-03T08:15:57.851Z,13.20
2018-12-03T08:21:05.205Z,13.40
2018-12-03T08:26:11.311Z,13.50
2018-12-03T08:31:17.262Z,13.70
2018-12-03T08:36:23.279Z,13.80
2018-12-03T08:41:28.411Z,13.90
2018-12-03T08:46:33.297Z,14.00
2018-12-03T08:51:38.275Z,14.10
2018-12-03T08:56:46.645Z,14.20
2018-12-03T09:01:51.634Z,14.20
2018-12-03T09:07:02.080Z,14.20
2018-12-03T09:12:07.232Z,14.10
2018-12-03T09:17:13.836Z,14.10
2018-12-03T09:22:18.821Z,14.10
2018-12-03T09:27:23.937Z,14.20
2018-12-03T09:32:33.792Z,14.20
2018-12-03T09:37:38.831Z,14.50
2018-12-03T09:42:43.941Z,14.70
2018-12-03T09:47:49.577Z,14.60
2018-12-03T09:52:55.172Z,14.80
2018-12-03T09:58:04.691Z,14.80
2018-12-03T10:03:14.794Z,15.00
2018-12-03T10:08:26.201Z,15.40
2018-12-03T10:13:32.073Z,15.70
2018-12-03T10:18:37.165Z,15.80
2018-12-03T10:23:42.213Z,16.00
2018-12-03T10:28:47.245Z,16.10
2018-12-03T10:33:52.202Z,16.10
2018-12-03T10:38:57.367Z,16.10
2018-12-03T10:44:03.167Z,16.30
2018-12-03T10:49:09.403Z,16.30
2018-12-03T10:54:14.343Z,16.60
2018-12-03T10:59:19.510Z,16.60
2018-12-03T11:04:30.744Z,16.80
2018-12-03T11:09:37.388Z,17.10
2018-12-03T11:14:42.452Z,17.20
2018-12-03T11:19:48.609Z,17.40
2018-12-03T11:24:53.653Z,17.90
2018-12-03T11:29:58.690Z,18.00
2018-12-03T11:35:05.988Z,18.00
2018-12-03T11:40:23.773Z,18.10
2018-12-03T11:45:29.360Z,18.10
2018-12-03T11:50:34.317Z,18.10
2018-12-03T11:55:39.269Z,18.20
2018-12-03T12:00:45.024Z,18.30
2018-12-03T12:05:50.888Z,18.50
2018-12-03T12:10:56.063Z,18.90
2018-12-03T12:16:01.671Z,18.60
2018-12-03T12:21:06.782Z,18.60
2018-12-03T12:26:11.629Z,19.00
2018-12-03T12:31:16.534Z,18.80
2018-12-03T12:36:21.520Z,18.90
2018-12-03T12:41:26.806Z,18.60
2018-12-03T12:46:32.589Z,18.70
2018-12-03T12:51:37.575Z,18.90
2018-12-03T12:56:42.676Z,19.00
2018-12-03T13:02:25.561Z,18.90
2018-12-03T13:07:31.900Z,19.30
2018-12-03T13:12:37.874Z,19.80
2018-12-03T13:17:46.061Z,19.90
2018-12-03T13:22:52.860Z,19.60
2018-12-03T13:27:59.815Z,19.80
2018-12-03T13:33:05.739Z,20.10
2018-12-03T13:38:12.245Z,20.40
2018-12-03T13:43:19.592Z,20.60
2018-12-03T13:48:24.747Z,21.00
2018-12-03T13:53:30.456Z,20.80
2018-12-03T13:58:35.858Z,21.30
2018-12-03T14:03:42.467Z,21.40
2018-12-03T14:11:02.131Z,20.70
2018-12-03T14:17:30.150Z,20.30
2018-12-03T14:22:44.370Z,20.40
2018-12-03T14:27:51.534Z,19.70
2018-12-03T14:32:57.831Z,19.20
2018-12-03T14:38:04.627Z,18.70
2018-12-03T14:43:10.577Z,18.60
2018-12-03T14:48:15.532Z,18.50
2018-12-03T14:53:21.696Z,18.20
2018-12-03T14:58:28.277Z,17.90
2018-12-03T15:03:33.370Z,17.60
2018-12-03T15:08:39.851Z,17.20
2018-12-03T15:13:45.133Z,17.20
2018-12-03T15:18:51.849Z,17.20
2018-12-03T15:23:58.473Z,17.20
2018-12-03T15:29:03.452Z,17.10
2018-12-03T15:34:09.032Z,17.00
2018-12-03T15:39:13.995Z,17.00
2018-12-03T15:44:19.937Z,17.00
2018-12-03T15:49:25.008Z,16.90
2018-12-03T15:54:31.169Z,16.80
2018-12-03T15:59:37.457Z,16.70
2018-12-03T16:04:42.442Z,16.70
2018-12-03T16:09:48.759Z,16.60
2018-12-03T16:14:54.094Z,16.60
2018-12-03T16:20:00.035Z,16.50
2018-12-03T16:25:06.023Z,16.50
2018-12-03T16:30:15.117Z,16.40
2018-12-03T16:35:21.429Z,16.20
2018-12-03T16:40:28.152Z,15.90
2018-12-03T16:45:33.400Z,15.70
2018-12-03T16:50:39.899Z,15.70
2018-12-03T16:55:47.072Z,15.60
2018-12-03T17:00:54.312Z,15.20
2018-12-03T17:06:03.647Z,14.90
2018-12-03T17:11:09.854Z,15.00
2018-12-03T17:16:14.826Z,15.40
2018-12-03T17:21:31.277Z,15.60
2018-12-03T17:26:36.445Z,15.80
2018-12-03T17:31:41.971Z,15.60
2018-12-03T17:36:48.445Z,15.50
2018-12-03T17:41:54.316Z,15.50
2018-12-03T17:47:01.001Z,15.50
2018-12-03T17:52:06.003Z,15.50
2018-12-03T17:57:12.247Z,15.40
2018-12-03T18:02:20.689Z,15.30
2018-12-03T18:07:27.457Z,15.10
2018-12-03T18:12:32.833Z,15.00
2018-12-03T18:17:40.180Z,14.80
2018-12-03T18:22:45.356Z,14.70
2018-12-03T18:27:51.412Z,14.60
2018-12-03T18:32:57.909Z,14.50
2018-12-03T18:38:03.970Z,14.60
2018-12-03T18:43:09.740Z,14.50
2018-12-03T18:48:15.388Z,14.30
2018-12-03T18:53:24.725Z,14.10
2018-12-03T18:59:04.709Z,14.10
2018-12-03T19:04:10.581Z,14.20
2018-12-03T19:09:16.236Z,14.00
2018-12-03T19:14:22.417Z,13.60
2018-12-03T19:19:27.603Z,13.40
2018-12-03T19:24:34.563Z,13.40
2018-12-03T19:29:41.108Z,13.60
2018-12-03T19:34:46.812Z,13.60
2018-12-03T19:39:54.180Z,13.80
2018-12-03T19:45:00.938Z,13.80
2018-12-03T19:50:07.240Z,13.90
2018-12-03T19:55:14.102Z,13.90
2018-12-03T20:00:19.330Z,13.90
2018-12-03T20:05:25.420Z,13.90
2018-12-03T20:10:31.421Z,13.90
2018-12-03T20:15:38.792Z,13.90
2018-12-03T20:20:50.342Z,13.80
2018-12-03T20:26:20.977Z,13.70
2018-12-03T20:32:09.983Z,13.70
2018-12-03T20:37:27.663Z,13.70
2018-12-03T20:42:37.786Z,13.80
2018-12-03T20:47:44.905Z,13.70
2018-12-03T20:52:51.603Z,13.60
2018-12-03T20:57:58.305Z,13.50
2018-12-03T21:03:03.510Z,13.50
2018-12-03T21:08:09.737Z,13.50
2018-12-03T21:13:14.789Z,13.40
2018-12-03T21:18:21.379Z,13.40
2018-12-03T21:23:27.032Z,13.40
2018-12-03T21:28:31.906Z,13.30
2018-12-03T21:33:38.539Z,13.40
2018-12-03T21:38:44.280Z,13.40
2018-12-03T21:43:50.781Z,13.40
2018-12-03T21:48:56.077Z,13.40
2018-12-03T21:54:02.912Z,13.50
2018-12-03T21:59:12.621Z,13.50
2018-12-03T22:04:18.414Z,13.70
2018-12-03T22:14:38.703Z,13.60
2018-12-03T22:19:45.536Z,13.70
2018-12-03T22:24:51.915Z,13.70
2018-12-03T22:29:58.257Z,13.70
2018-12-03T22:35:04.901Z,13.70
2018-12-03T22:40:12.084Z,13.60
2018-12-03T22:45:19.678Z,13.90
2018-12-03T22:50:24.650Z,14.00
2018-12-03T22:55:30.451Z,14.00
2018-12-03T23:00:37.736Z,13.80
2018-12-03T23:05:44.044Z,13.90
2018-12-03T23:10:50.267Z,13.80
2018-12-03T23:15:55.269Z,13.80
2018-12-03T23:21:01.001Z,13.70
2018-12-03T23:26:05.926Z,13.60
2018-12-03T23:31:13.056Z,13.50
2018-12-03T23:36:19.999Z,13.70
2018-12-03T23:41:24.975Z,13.80
2018-12-03T23:46:30.950Z,13.80
2018-12-03T23:51:36.415Z,13.90
2018-12-03T23:56:42.171Z,13.90
